Gates Mills, Ohio
Current Conditions -  °F | °C
As of 8:45 AM on Monday 20 Oct 2014 (Local Time) from KCGF Reporting Station
Broken Clouds Broken Clouds  
Wind Chill: 50°   Ceiling: 7000
Heat Index: 50°   Visibility: 10mi
Dew Point: 43°   Wind: 12mph
Humidity: 76%   Direction: 210°SSW
Pressure: 29.94"   Gusts: NA
Location:  41.52°N, 81.4°W
Report Text: KCGF 201245Z 21010KT 10SM BKN070 10/06 A2994
Loading
Personal Weather Stations






























Interactive Weather Map
Tropical Storm Tracking
New forecast layout! Learn more

10-Day Weather Forecast

Advertisements
Track Severe Weather on mobile